Time;durP1;ratioP1;P1;durP2;ratioP2;P2;SDS_P1;SDS_P2;PMS_P1;PMS_P2;Temp;Humidity;BMP_temperature;BMP_pressure;BME280_temperature;BME280_humidity;BME280_pressure;Samples;Min_cycle;Max_cycle;Signal;HPM_P1;HPM_P2
2022/04/21 00:00:14;;;;;;;12.55;4.30;;;6.50;99.90;;;5.07;100.00;101222.28;5037527;28;20116;-75
2022/04/21 00:02:58;;;;;;;10.68;4.35;;;6.60;99.90;;;5.08;100.00;101211.81;5036602;28;20033;-73
2022/04/21 00:05:24;;;;;;;11.23;4.93;;;6.50;99.90;;;5.09;100.00;101216.13;5046121;28;20373;-73
2022/04/21 00:11:31;;;;;;;12.07;4.85;;;6.60;99.90;;;5.08;100.00;101209.19;5044867;28;20048;-73
2022/04/21 00:13:57;;;;;;;12.25;4.70;;;6.60;99.90;;;5.09;100.00;101218.75;5042368;28;20631;-74
2022/04/21 00:16:23;;;;;;;16.02;4.93;;;6.60;99.90;;;5.10;100.00;101210.03;5044406;28;20165;-74
2022/04/21 00:18:49;;;;;;;15.48;4.38;;;6.60;99.90;;;5.11;100.00;101205.66;5042688;28;20108;-73
2022/04/21 00:23:26;;;;;;;14.00;4.97;;;6.60;99.90;;;5.14;100.00;101211.72;5045335;28;20135;-73
2022/04/21 00:24:19;;;;;;;20.02;5.68;;;6.60;99.90;;;5.15;100.00;101202.13;5036668;28;20036;-73
2022/04/21 00:27:03;;;;;;;13.25;4.90;;;6.70;99.90;;;5.13;100.00;101199.53;5043807;28;20174;-73
2022/04/21 00:29:29;;;;;;;16.98;4.40;;;6.60;99.90;;;5.11;100.00;101198.69;5038469;28;20056;-73
2022/04/21 00:31:55;;;;;;;18.23;4.88;;;6.60;99.90;;;5.14;100.00;101188.22;5036487;28;20037;-74
2022/04/21 00:34:22;;;;;;;15.57;4.70;;;6.60;99.90;;;5.18;100.00;101190.75;5037361;28;20025;-74
2022/04/21 00:36:48;;;;;;;15.05;4.60;;;6.60;99.90;;;5.11;100.00;101190.88;5037973;28;20400;-73
2022/04/21 00:39:14;;;;;;;14.20;4.82;;;6.60;99.90;;;5.14;100.00;101203.03;5036145;28;20051;-73
2022/04/21 00:41:41;;;;;;;23.98;5.50;;;6.60;99.90;;;5.15;100.00;101202.13;5018529;28;20099;-73
2022/04/21 00:44:07;;;;;;;15.73;5.15;;;6.50;99.90;;;5.06;100.00;101212.72;5037978;28;20025;-74
2022/04/21 00:46:38;;;;;;;19.42;5.55;;;6.50;99.90;;;5.05;100.00;101204.00;5034647;28;20039;-73
2022/04/21 00:49:25;;;;;;;16.23;5.15;;;6.50;99.90;;;5.10;100.00;101194.38;5036240;28;20029;-73
2022/04/21 00:52:11;;;;;;;;;;;6.50;99.90;;;4.97;100.00;101191.97;5037645;28;20032;-74
2022/04/21 00:57:43;;;;;;;21.38;5.45;;;6.40;99.90;;;4.91;100.00;101188.59;5034604;28;20198;-73
2022/04/21 01:00:11;;;;;;;17.60;5.18;;;6.40;99.90;;;4.90;100.00;101186.00;5043286;28;20493;-73
2022/04/21 01:02:51;;;;;;;14.73;5.40;;;6.30;99.90;;;4.86;100.00;101185.19;5032807;28;20025;-73
2022/04/21 01:05:29;;;;;;;13.60;5.40;;;6.30;99.90;;;4.85;100.00;101187.81;5028587;28;20044;-73
2022/04/21 01:08:01;;;;;;;16.88;5.40;;;6.30;99.90;;;4.79;100.00;101190.53;5025186;28;20025;-74
2022/04/21 01:10:29;;;;;;;19.98;4.97;;;6.30;99.90;;;4.77;100.00;101193.16;5030282;28;20021;-73
2022/04/21 01:13:15;;;;;;;16.95;5.35;;;6.30;99.90;;;4.75;100.00;101192.31;5031669;28;20018;-73
2022/04/21 01:19:21;;;;;;;20.45;5.43;;;6.20;99.90;;;4.72;100.00;101176.72;5024239;28;20087;-73
2022/04/21 01:21:48;;;;;;;13.82;4.90;;;6.20;99.90;;;4.71;100.00;101170.63;5024484;28;20032;-73
2022/04/21 01:24:13;;;;;;;17.88;5.32;;;6.20;99.90;;;4.69;100.00;101164.59;5027929;28;20083;-74
2022/04/21 01:26:39;;;;;;;13.02;5.95;;;6.20;99.90;;;4.75;100.00;101165.34;5030777;28;20041;-74
2022/04/21 01:29:24;;;;;;;19.25;5.40;;;6.20;99.90;;;4.76;100.00;101161.88;5027532;28;20036;-73
2022/04/21 01:31:50;;;;;;;23.48;6.57;;;6.20;99.90;;;4.71;100.00;101159.34;5023834;28;20531;-73
2022/04/21 01:34:35;;;;;;;22.42;6.22;;;6.10;99.90;;;4.71;100.00;101165.41;5028697;28;20108;-73
2022/04/21 01:42:49;;;;;;;16.42;6.13;;;6.00;99.90;;;4.56;100.00;101149.13;5019806;28;20205;-73
2022/04/21 01:45:16;;;;;;;18.20;5.55;;;6.00;99.90;;;4.53;100.00;101144.81;5011802;28;20112;-73
2022/04/21 01:51:22;;;;;;;18.77;6.70;;;6.00;99.90;;;4.50;100.00;101130.09;5026888;28;20028;-73
2022/04/21 01:53:48;;;;;;;20.92;5.43;;;6.00;99.90;;;4.51;100.00;101129.22;5022399;28;20029;-74
2022/04/21 01:56:33;;;;;;;17.30;6.18;;;6.00;99.90;;;4.56;100.00;101133.47;5019820;28;20013;-73
2022/04/21 02:02:02;;;;;;;14.77;5.00;;;6.00;99.90;;;4.58;100.00;101124.75;5027040;28;20456;-73
2022/04/21 02:04:27;;;;;;;21.08;6.53;;;6.00;99.90;;;4.57;100.00;101122.16;5040621;28;20037;-74
2022/04/21 02:06:53;;;;;;;15.70;5.68;;;6.00;99.90;;;4.57;100.00;101125.63;5021046;28;20036;-73
2022/04/21 02:12:06;;;;;;;18.75;5.93;;;6.10;99.90;;;4.54;100.00;101135.28;5033569;28;20032;-74
2022/04/21 02:14:33;;;;;;;12.40;6.18;;;6.10;99.90;;;4.53;100.00;101129.16;5011833;28;20033;-73
2022/04/21 02:17:00;;;;;;;20.77;6.00;;;6.10;99.90;;;4.59;100.00;101133.44;5003780;28;20033;-74
2022/04/21 02:19:47;;;;;;;21.10;6.82;;;6.10;99.90;;;4.52;100.00;101130.91;5029728;28;20034;-73
2022/04/21 02:22:13;;;;;;;20.00;5.70;;;6.00;99.90;;;4.54;100.00;101137.88;5019372;28;20508;-73
2022/04/21 02:24:40;;;;;;;20.50;6.65;;;6.10;99.90;;;4.56;100.00;101133.47;5021450;28;20025;-74
2022/04/21 02:27:06;;;;;;;21.45;6.72;;;6.10;99.90;;;4.55;100.00;101130.00;5023756;28;20094;-74
2022/04/21 02:29:52;;;;;;;22.55;6.30;;;6.00;99.90;;;4.54;100.00;101128.31;5022169;28;20404;-73
2022/04/21 02:32:18;;;;;;;14.27;5.25;;;6.00;99.90;;;4.49;100.00;101133.59;5018874;28;21795;-73
2022/04/21 02:34:43;;;;;;;25.83;6.72;;;6.00;99.90;;;4.54;100.00;101136.13;5020213;28;20026;-73
2022/04/21 02:37:46;;;;;;;20.95;5.93;;;6.10;99.90;;;4.59;100.00;101128.22;5020848;28;20862;-73
2022/04/21 02:40:31;;;;;;;15.57;6.80;;;6.10;99.90;;;4.60;100.00;101125.59;5027675;28;20052;-73
2022/04/21 02:42:57;;;;;;;20.45;6.20;;;6.00;99.90;;;4.54;100.00;101130.06;5026611;28;20034;-74
2022/04/21 02:45:23;;;;;;;16.40;5.90;;;6.00;99.90;;;4.49;100.00;101128.38;5026070;28;20057;-73
2022/04/21 02:48:08;;;;;;;15.80;6.13;;;6.00;99.90;;;4.47;100.00;101124.94;5041872;28;20029;-74
2022/04/21 02:50:33;;;;;;;17.85;6.63;;;5.90;99.90;;;4.46;100.00;101120.59;5012958;28;20481;-73
2022/04/21 02:52:59;;;;;;;18.27;7.18;;;5.90;99.90;;;4.32;100.00;101109.50;5021456;28;20075;-72
2022/04/21 02:59:05;;;;;;;28.05;7.55;;;5.90;99.90;;;4.37;100.00;101118.13;5025156;28;20290;-74
2022/04/21 03:01:31;;;;;;;20.95;6.18;;;5.90;99.90;;;4.38;100.00;101124.19;5021591;28;20489;-74
2022/04/21 03:04:34;;;;;;;26.45;6.90;;;5.90;99.90;;;4.43;100.00;101122.38;5024722;28;20041;-74
2022/04/21 03:10:22;;;;;;;20.75;7.00;;;5.90;99.90;;;4.44;100.00;101111.06;5021521;28;20032;-74
2022/04/21 03:15:50;;;;;;;21.65;7.05;;;5.90;99.90;;;4.42;100.00;101100.66;5020356;28;20051;-73
2022/04/21 03:18:16;;;;;;;22.65;6.53;;;5.90;99.90;;;4.39;100.00;101095.50;5028242;28;20029;-73
2022/04/21 03:27:07;;;;;;;21.10;7.22;;;5.80;99.90;;;4.38;100.00;101111.16;5027188;28;20558;-73
2022/04/21 03:29:52;;;;;;;18.73;6.57;;;5.90;99.90;;;4.37;100.00;101112.06;5042494;28;20090;-74
2022/04/21 03:32:17;;;;;;;23.27;7.20;;;5.90;99.90;;;4.33;100.00;101116.44;5020761;28;20029;-73
2022/04/21 03:35:02;;;;;;;26.30;8.10;;;5.90;99.90;;;4.39;100.00;101124.16;5019820;28;20167;-74
2022/04/21 03:37:28;;;;;;;20.27;7.53;;;5.90;99.90;;;4.40;100.00;101130.25;5021900;28;20088;-73
2022/04/21 03:40:13;;;;;;;25.58;8.00;;;5.90;99.90;;;4.45;100.00;101125.81;5011391;28;20021;-73
2022/04/21 03:42:39;;;;;;;23.42;7.57;;;5.90;99.90;;;4.43;100.00;101127.59;5020101;28;20477;-73
2022/04/21 03:47:50;;;;;;;27.10;7.68;;;6.00;99.90;;;4.47;100.00;101134.47;5019244;28;20056;-73
2022/04/21 03:50:34;;;;;;;20.02;7.18;;;6.00;99.90;;;4.52;100.00;101140.50;5036552;28;20517;-73
2022/04/21 03:53:19;;;;;;;24.77;8.07;;;6.00;99.90;;;4.54;100.00;101143.09;5019502;28;20694;-73
2022/04/21 03:56:03;;;;;;;30.25;8.75;;;6.00;99.90;;;4.57;100.00;101143.03;5019354;28;20172;-73
2022/04/21 03:58:29;;;;;;;26.42;7.10;;;6.00;99.90;;;4.55;100.00;101153.47;5018499;28;20649;-73
2022/04/21 04:03:58;;;;;;;28.90;8.00;;;6.00;99.90;;;4.59;100.00;101149.09;5023690;28;20035;-73
2022/04/21 04:11:52;;;;;;;31.67;8.65;;;6.10;99.90;;;4.67;100.00;101155.91;5047620;28;20036;-73
2022/04/21 04:14:21;;;;;;;33.20;9.18;;;6.10;99.90;;;4.75;100.00;101147.09;5037784;28;20045;-74
2022/04/21 04:16:47;;;;;;;28.52;8.25;;;6.10;99.90;;;4.82;100.00;101156.56;5016136;28;20727;-73
2022/04/21 04:19:32;;;;;;;32.78;8.88;;;6.20;99.90;;;4.84;100.00;101144.38;5019406;28;20128;-73
2022/04/21 04:22:16;;;;;;;27.50;9.35;;;6.20;99.90;;;4.91;100.00;101157.28;5019073;28;20064;-74
2022/04/21 04:24:45;;;;;;;36.92;9.32;;;6.30;99.90;;;4.93;100.00;101152.88;5020336;28;20059;-74
2022/04/21 04:27:29;;;;;;;23.70;7.90;;;6.30;99.90;;;4.94;100.00;101165.03;5018210;28;20028;-74
2022/04/21 04:30:15;;;;;;;29.70;8.65;;;6.40;99.90;;;5.02;100.00;101162.31;5020889;28;20033;-73
2022/04/21 04:33:00;;;;;;;26.77;8.60;;;6.50;99.90;;;5.15;100.00;101168.19;5019518;28;20022;-73
2022/04/21 04:35:45;;;;;;;23.48;8.23;;;6.60;99.90;;;5.32;100.00;101171.38;5023414;28;20389;-74
2022/04/21 04:38:29;;;;;;;28.73;9.63;;;6.70;99.90;;;5.33;100.00;101174.84;5032052;28;20032;-74
2022/04/21 04:43:59;;;;;;;27.17;8.68;;;6.90;99.90;;;5.57;100.00;101168.28;5027478;28;20028;-73
2022/04/21 04:46:43;;;;;;;23.95;8.27;;;6.90;99.90;;;5.61;100.00;101167.34;5029821;28;20382;-74
2022/04/21 04:49:46;;;;;;;28.60;8.45;;;6.90;99.90;;;5.55;100.00;101170.97;5045490;28;20511;-73
2022/04/21 04:55:35;;;;;;;25.17;8.55;;;7.00;99.90;;;5.68;100.00;101165.47;5030046;28;20120;-74
2022/04/21 04:58:20;;;;;;;26.67;8.50;;;7.10;99.90;;;5.66;100.00;101151.59;5025379;28;20056;-74
2022/04/21 05:00:48;;;;;;;32.47;8.90;;;7.10;99.90;;;5.76;100.00;101151.38;5029480;28;20571;-73
2022/04/21 05:03:35;;;;;;;26.35;8.90;;;7.20;99.90;;;5.80;100.00;101154.78;5029093;28;20489;-74
2022/04/21 05:08:45;;;;;;;25.75;8.88;;;7.20;99.90;;;5.75;100.00;101161.88;5029419;28;19974;-74
2022/04/21 05:14:34;;;;;;;22.38;7.38;;;7.10;99.90;;;5.69;100.00;101183.75;5028805;28;20052;-73
2022/04/21 05:17:37;;;;;;;26.60;8.55;;;7.10;99.90;;;5.70;100.00;101190.72;5010235;28;20083;-74
2022/04/21 05:20:04;;;;;;;21.40;7.85;;;7.20;99.90;;;5.73;100.00;101185.41;5022821;28;20108;-74
2022/04/21 05:22:49;;;;;;;19.92;7.75;;;7.20;99.90;;;5.74;100.00;101187.16;5009533;28;20056;-74
2022/04/21 05:25:36;;;;;;;21.67;8.15;;;7.20;99.90;;;5.80;100.00;101188.75;5025002;28;20033;-74
2022/04/21 05:28:39;;;;;;;28.70;8.18;;;7.20;99.90;;;5.73;100.00;101176.72;5026697;28;20036;-74
2022/04/21 05:31:26;;;;;;;27.60;8.32;;;7.20;99.90;;;5.87;100.00;101177.28;5029982;28;20551;-73
2022/04/21 05:33:55;;;;;;;28.85;9.15;;;7.30;99.90;;;5.90;100.00;101182.47;5045726;28;20154;-73
2022/04/21 05:36:22;;;;;;;31.17;8.48;;;7.30;99.90;;;5.93;100.00;101171.94;5011646;28;20042;-73
2022/04/21 05:38:49;;;;;;;28.80;8.85;;;7.30;99.90;;;6.07;100.00;101176.06;5028505;28;20036;-73
2022/04/21 05:41:18;;;;;;;31.83;9.00;;;7.40;99.90;;;6.08;100.00;101169.94;5027743;28;20056;-73
2022/04/21 05:43:47;;;;;;;24.80;7.90;;;7.40;99.90;;;6.13;100.00;101168.09;5037233;28;20025;-74
2022/04/21 05:46:15;;;;;;;31.08;8.73;;;7.50;99.90;;;6.20;100.00;101167.09;5037402;28;20044;-74
2022/04/21 05:48:43;;;;;;;28.33;8.77;;;7.40;99.90;;;6.20;100.00;101176.66;5021509;28;20041;-73
2022/04/21 05:54:14;;;;;;;28.27;8.65;;;7.60;99.90;;;6.47;100.00;101190.91;5024608;28;20060;-73
2022/04/21 05:56:40;;;;;;;25.02;8.27;;;7.80;99.90;;;6.62;100.00;101172.25;5010034;28;20031;-73
2022/04/21 05:59:06;;;;;;;24.25;7.72;;;7.90;99.90;;;6.84;100.00;101169.13;5023737;28;20494;-73
2022/04/21 06:04:16;;;;;;;25.27;8.07;;;8.10;99.90;;;7.03;100.00;101159.94;5033126;28;20060;-74
2022/04/21 06:06:42;;;;;;;26.30;7.80;;;8.10;99.90;;;6.83;100.00;101159.56;5022603;28;20030;-74
2022/04/21 06:09:26;;;;;;;24.52;6.93;;;8.10;99.90;;;6.64;100.00;101157.38;5019880;28;20585;-73
2022/04/21 06:12:10;;;;;;;24.75;6.68;;;7.90;99.90;;;6.41;100.00;101162.25;5025973;28;20542;-73
2022/04/21 06:14:54;;;;;;;15.80;6.85;;;7.90;99.90;;;6.42;100.00;101158.78;5031116;28;20532;-74
2022/04/21 06:17:39;;;;;;;24.25;7.15;;;7.90;99.90;;;6.48;100.00;101158.59;5024845;28;20057;-73
2022/04/21 06:20:06;;;;;;;21.05;7.75;;;7.90;99.90;;;6.50;100.00;101156.81;5012465;28;20094;-73
2022/04/21 06:22:31;;;;;;;24.58;7.97;;;7.90;99.90;;;6.53;100.00;101157.63;5003725;28;20040;-73
2022/04/21 06:25:16;;;;;;;23.67;6.82;;;7.90;99.90;;;6.61;100.00;101161.81;5020975;28;20037;-73
2022/04/21 06:27:41;;;;;;;28.92;7.40;;;7.90;99.90;;;6.62;100.00;101161.78;5023002;28;20040;-73
2022/04/21 06:30:26;;;;;;;25.60;5.93;;;8.00;99.90;;;6.73;100.00;101161.53;5023623;28;20034;-74
2022/04/21 06:32:53;;;;;;;25.67;6.50;;;8.20;99.90;;;6.98;100.00;101161.81;5028094;28;20464;-73
2022/04/21 06:35:20;;;;;;;13.60;4.60;;;8.30;99.90;;;7.13;100.00;101160.56;5042921;28;20481;-73
2022/04/21 06:40:30;;;;;;;18.27;6.28;;;8.30;99.90;;;7.01;100.00;101159.09;5022210;28;20087;-72
2022/04/21 06:42:57;;;;;;;27.42;6.63;;;8.30;99.90;;;6.92;100.00;101154.94;5021053;28;20025;-73
2022/04/21 06:48:26;;;;;;;19.60;5.68;;;8.40;99.90;;;7.22;100.00;101172.56;5030664;28;20476;-73
2022/04/21 06:50:54;;;;;;;25.17;6.07;;;8.50;99.90;;;7.18;100.00;101172.63;5044392;28;20111;-73
2022/04/21 06:53:20;;;;;;;20.92;6.18;;;8.50;99.90;;;7.15;100.00;101174.47;5043147;28;20035;-74
2022/04/21 06:55:46;;;;;;;21.77;6.30;;;8.60;99.90;;;7.30;100.00;101173.19;5042854;28;20473;-74
2022/04/21 06:58:49;;;;;;;20.98;6.15;;;8.60;99.90;;;7.39;100.00;101170.38;5028374;28;20108;-74
2022/04/21 07:01:15;;;;;;;24.80;6.32;;;8.70;99.90;;;7.52;100.00;101163.91;5021110;28;20045;-74
2022/04/21 07:03:40;;;;;;;19.48;5.43;;;8.80;99.90;;;7.60;100.00;101166.28;5018972;28;20028;-74
2022/04/21 07:06:24;;;;;;;22.80;6.68;;;8.90;99.90;;;7.82;100.00;101177.06;5022688;28;20109;-74
2022/04/21 07:08:50;;;;;;;22.00;6.03;;;8.90;99.90;;;7.73;99.96;101180.81;5021305;28;20072;-74
2022/04/21 07:11:20;;;;;;;18.15;5.45;;;9.00;99.90;;;7.71;99.21;101181.72;5027601;28;20109;-74
2022/04/21 07:16:30;;;;;;;24.40;5.72;;;9.10;99.90;;;8.09;98.47;101178.03;5026248;28;20550;-74
2022/04/21 07:21:40;;;;;;;16.85;5.47;;;9.30;99.90;;;8.32;96.56;101168.63;5038478;28;20047;-74
2022/04/21 07:24:06;;;;;;;19.45;6.00;;;9.40;99.90;;;8.47;95.51;101170.81;5029257;28;20033;-74
2022/04/21 07:32:57;;;;;;;10.48;3.90;;;9.50;99.90;;;8.44;91.98;101170.91;5026623;28;20047;-73
2022/04/21 07:35:24;;;;;;;12.82;4.60;;;9.70;99.90;;;8.86;92.18;101182.75;5028317;28;20108;-73
2022/04/21 07:37:50;;;;;;;14.90;5.43;;;9.80;99.90;;;9.04;90.78;101184.75;5027966;28;20481;-74
2022/04/21 07:40:16;;;;;;;19.13;5.57;;;10.00;99.90;;;9.14;89.67;101196.69;5023512;28;20036;-74
2022/04/21 07:42:44;;;;;;;19.65;6.10;;;10.30;99.90;;;10.10;87.43;101203.88;5001339;28;20679;-74
2022/04/21 07:45:29;;;;;;;17.95;5.05;;;10.80;99.90;;;10.61;83.74;101203.69;5026194;28;20036;-74
2022/04/21 07:47:55;;;;;;;22.25;4.93;;;11.40;99.90;;;11.20;80.26;101219.81;5026390;28;20501;-74
2022/04/21 07:50:40;;;;;;;15.80;4.97;;;11.80;99.90;;;11.27;77.70;101208.97;5027922;28;20043;-75
2022/04/21 07:55:50;;;;;;;14.27;4.20;;;11.80;99.90;;;10.53;78.16;101208.41;5018894;28;20234;-73
2022/04/21 08:01:00;;;;;;;16.05;4.68;;;11.40;99.90;;;10.19;80.26;101212.28;5022728;28;20045;-73
2022/04/21 08:06:29;;;;;;;12.55;4.13;;;11.90;99.90;;;11.89;76.69;101216.88;5019171;28;20048;-75
2022/04/21 08:08:55;;;;;;;13.13;4.07;;;12.70;99.90;;;12.95;72.64;101216.41;5028853;28;20036;-73
2022/04/21 08:11:21;;;;;;;17.50;4.50;;;13.30;99.90;;;13.24;69.62;101213.19;5046117;28;20037;-74
2022/04/21 08:13:48;;;;;;;17.90;4.63;;;13.60;99.90;;;12.92;68.48;101212.13;5027208;28;20022;-74
2022/04/21 08:16:32;;;;;;;13.07;4.45;;;13.70;99.90;;;12.97;68.76;101219.81;5029322;28;20060;-74
2022/04/21 08:22:02;;;;;;;17.90;4.65;;;13.60;99.90;;;13.06;69.10;101222.00;5027885;28;20091;-73
2022/04/21 08:33:03;;;;;;;20.83;4.32;;;15.40;99.90;;;15.16;62.19;101220.56;5020200;28;20464;-74
2022/04/21 08:35:29;;;;;;;16.75;4.53;;;15.70;99.90;;;15.31;61.45;101211.75;5023750;28;20026;-75
2022/04/21 08:37:54;;;;;;;11.18;4.22;;;15.80;99.90;;;15.38;60.36;101215.72;5023275;28;20033;-75
2022/04/21 08:40:40;;;;;;;11.73;3.08;;;16.20;99.90;;;15.65;59.41;101220.34;5022024;28;20029;-73
2022/04/21 08:43:18;;;;;;;11.55;3.40;;;16.20;99.90;;;15.14;59.27;101225.09;5015985;28;20025;-73
2022/04/21 08:48:31;;;;;;;;;;;16.00;99.90;;;15.30;60.03;101241.00;5021485;28;20060;-74
2022/04/21 08:50:58;;;;;;;15.27;3.92;;;15.80;99.90;;;14.77;60.84;101235.16;5025310;28;19920;-74
2022/04/21 08:53:43;;;;;;;19.40;4.75;;;15.70;99.90;;;14.64;61.56;101244.72;5018473;28;20724;-75
2022/04/21 08:56:10;;;;;;;13.80;4.25;;;15.50;99.90;;;14.44;62.41;101251.94;5024937;28;20491;-74
2022/04/21 08:58:36;;;;;;;15.88;4.55;;;15.40;99.90;;;14.34;63.46;101251.63;5023592;28;20148;-73
2022/04/21 09:01:01;;;;;;;13.25;3.83;;;14.90;99.90;;;13.66;65.11;101251.63;5038238;28;20075;-74
2022/04/21 09:03:27;;;;;;;18.08;4.53;;;14.60;99.90;;;13.27;65.84;101252.69;5022781;28;20025;-73
2022/04/21 09:06:11;;;;;;;;;;;14.60;99.90;;;13.14;66.70;101246.28;5025218;28;20071;-75
2022/04/21 09:09:33;;;;;;;12.13;3.95;;;14.40;99.90;;;13.32;65.67;101255.13;5022946;28;20172;-74
2022/04/21 09:11:59;;;;;;;14.77;3.75;;;14.40;99.90;;;13.27;65.71;101257.97;5022198;28;20040;-74
2022/04/21 09:14:24;;;;;;;16.83;4.50;;;14.40;99.90;;;13.45;65.44;101263.31;5024921;28;20032;-75
2022/04/21 09:17:09;;;;;;;17.30;3.90;;;14.60;99.90;;;13.66;65.72;101262.22;5025048;28;20112;-74
2022/04/21 09:19:35;;;;;;;11.63;3.50;;;14.20;99.90;;;12.83;65.39;101268.03;5020633;28;20097;-73
2022/04/21 09:22:00;;;;;;;10.15;3.20;;;13.70;99.90;;;12.11;67.51;101267.78;5005793;28;20037;-73
2022/04/21 09:24:30;;;;;;;16.98;4.50;;;13.80;99.90;;;12.93;70.08;101267.53;5023703;28;20029;-73
2022/04/21 09:26:57;;;;;;;18.40;4.45;;;13.80;99.90;;;12.98;68.62;101269.97;5023670;28;20076;-75
2022/04/21 09:29:31;;;;;;;10.77;3.92;;;14.00;99.90;;;13.30;67.77;101265.81;5039283;28;20126;-74
2022/04/21 09:32:02;;;;;;;25.52;4.65;;;14.20;99.90;;;13.39;66.86;101269.78;5022601;28;20095;-74
2022/04/21 09:34:29;;;;;;;15.55;4.47;;;14.00;99.90;;;12.93;67.53;101262.25;5027862;28;20032;-73
2022/04/21 09:36:59;;;;;;;16.48;4.57;;;13.90;99.90;;;12.81;68.55;101267.28;5024281;28;20059;-74
2022/04/21 09:39:27;;;;;;;14.00;4.22;;;13.80;99.90;;;12.86;69.52;101274.06;5019410;28;20021;-74
2022/04/21 09:42:12;;;;;;;18.38;4.35;;;13.90;99.90;;;12.93;68.60;101269.31;5020642;28;20090;-74
2022/04/21 09:47:48;;;;;;;15.52;3.65;;;14.20;99.90;;;13.19;66.99;101259.28;5023683;28;20075;-74
2022/04/21 09:50:33;;;;;;;17.98;4.35;;;14.00;99.90;;;12.91;65.76;101258.84;5011157;28;20044;-73
2022/04/21 09:53:03;;;;;;;15.27;3.92;;;14.00;99.90;;;13.14;67.93;101259.50;5039133;28;20032;-73
2022/04/21 09:55:49;;;;;;;17.90;4.00;;;14.00;99.90;;;12.96;67.16;101260.38;5021209;28;20029;-74
2022/04/21 09:58:17;;;;;;;17.05;3.97;;;14.00;99.90;;;13.24;67.45;101259.91;5019589;28;20038;-74
2022/04/21 10:01:02;;;;;;;13.02;4.07;;;14.20;99.90;;;13.32;66.85;101263.91;5022000;28;20040;-74
2022/04/21 10:03:28;;;;;;;19.30;4.78;;;14.40;99.90;;;13.65;66.43;101264.94;5037997;28;20045;-74
2022/04/21 10:05:54;;;;;;;22.20;4.30;;;14.70;99.90;;;14.14;65.36;101263.25;5021962;28;20052;-74
2022/04/21 10:08:20;;;;;;;23.48;4.32;;;15.00;99.90;;;14.38;65.03;101267.31;5037680;28;20021;-75
2022/04/21 10:10:50;;;;;;;13.63;3.72;;;15.00;99.90;;;14.16;63.68;101253.44;5019710;28;20037;-72
2022/04/21 10:13:16;;;;;;;12.88;3.92;;;15.10;99.90;;;14.21;65.08;101261.16;5036190;28;20033;-74
2022/04/21 10:15:43;;;;;;;10.25;3.20;;;15.20;99.90;;;14.18;64.13;101255.16;5020614;28;20551;-74
2022/04/21 10:18:13;;;;;;;15.25;4.18;;;15.20;99.90;;;14.01;64.55;101267.47;5020337;28;20047;-74
2022/04/21 10:20:42;;;;;;;11.90;3.13;;;15.00;99.90;;;13.52;64.33;101247.06;5020030;28;20030;-74
2022/04/21 10:23:17;;;;;;;13.10;3.95;;;14.90;99.90;;;13.75;64.69;101261.75;5021063;28;20091;-74
2022/04/21 10:25:43;;;;;;;16.33;4.15;;;14.90;99.90;;;13.73;64.85;101260.97;5033852;28;20036;-74
2022/04/21 10:28:46;;;;;;;12.43;3.30;;;14.90;99.90;;;13.97;63.65;101263.28;5011427;28;20119;-75
2022/04/21 10:31:38;;;;;;;17.65;4.00;;;15.10;99.90;;;14.18;63.26;101265.75;4977936;28;20029;-74
2022/04/21 10:34:07;;;;;;;10.60;3.20;;;15.20;99.90;;;14.19;62.78;101259.50;5016400;28;20040;-75
2022/04/21 10:36:42;;;;;;;13.80;3.83;;;15.10;99.90;;;14.19;62.64;101252.44;5012049;28;20021;-75
2022/04/21 10:39:27;;;;;;;13.18;4.00;;;15.40;99.90;;;14.84;62.81;101262.19;5021006;28;20022;-74
2022/04/21 10:42:18;;;;;;;12.20;3.75;;;15.60;99.90;;;14.91;61.21;101258.25;5023349;28;20033;-73
2022/04/21 10:45:12;;;;;;;16.33;3.60;;;15.60;99.90;;;14.30;61.01;101251.88;5027716;28;20138;-73
2022/04/21 10:47:41;;;;;;;11.77;3.95;;;15.60;99.90;;;14.66;62.30;101256.09;5021227;28;20049;-73
2022/04/21 10:50:19;;;;;;;13.10;3.13;;;15.60;99.90;;;14.53;61.66;101256.75;5020874;28;20163;-74
2022/04/21 11:01:31;;;;;;;12.50;4.07;;;15.70;99.90;;;14.93;61.37;101254.56;5022299;28;20416;-73
2022/04/21 11:04:21;;;;;;;11.48;3.45;;;15.70;99.90;;;14.82;61.91;101264.94;5008929;28;20079;-73
2022/04/21 11:06:54;;;;;;;12.57;3.05;;;15.60;99.90;;;14.45;61.12;101256.31;5021968;28;20578;-74
2022/04/21 11:09:46;;;;;;;12.77;3.88;;;15.40;99.90;;;14.11;62.01;101260.78;5035721;28;20265;-74
2022/04/21 11:12:17;;;;;;;15.77;3.90;;;15.30;99.90;;;14.00;63.86;101270.25;5028241;28;21282;-73
2022/04/21 11:14:44;;;;;;;8.15;3.15;;;15.00;99.90;;;13.67;63.68;101256.03;5028966;28;20091;-74
2022/04/21 11:17:46;;;;;;;12.68;3.67;;;14.90;99.90;;;13.60;63.15;101264.34;5018868;28;20087;-74
2022/04/21 11:20:25;;;;;;;14.63;3.05;;;14.80;99.90;;;13.61;63.04;101258.13;5033895;28;20747;-73
2022/04/21 11:25:36;;;;;;;16.13;3.13;;;14.80;99.90;;;13.72;63.36;101256.63;5031965;28;20056;-75
2022/04/21 11:28:02;;;;;;;13.95;3.97;;;14.90;99.90;;;14.05;64.28;101273.50;5021443;28;20026;-74
2022/04/21 11:30:31;;;;;;;11.57;4.22;;;15.10;99.90;;;14.44;62.91;101262.56;5018251;28;20405;-73
2022/04/21 11:33:15;;;;;;;14.10;3.83;;;15.40;99.90;;;14.88;63.21;101269.91;5019723;28;20028;-73
2022/04/21 11:36:00;;;;;;;12.35;3.47;;;15.70;99.90;;;15.08;61.46;101265.25;5034941;28;20033;-73
2022/04/21 11:38:46;;;;;;;12.55;3.80;;;15.80;99.90;;;15.07;60.66;101253.78;5021426;28;20045;-73
2022/04/21 11:41:15;;;;;;;12.68;3.58;;;16.00;99.90;;;14.88;60.38;101261.94;5008015;28;20027;-73
2022/04/21 11:43:50;;;;;;;8.57;2.25;;;16.00;99.90;;;14.77;60.07;101261.66;5019213;28;20026;-74
2022/04/21 11:46:23;;;;;;;12.52;3.42;;;15.80;99.90;;;14.70;60.65;101269.09;5029328;28;20053;-73
2022/04/21 11:49:03;;;;;;;14.98;3.45;;;15.90;99.90;;;15.07;60.58;101261.72;5019364;28;20026;-73
2022/04/21 11:51:30;;;;;;;13.38;3.55;;;16.00;99.90;;;15.06;60.19;101261.84;5012509;28;20061;-74
2022/04/21 11:54:09;;;;;;;11.45;3.40;;;16.10;99.90;;;15.13;59.24;101260.53;5022284;28;20040;-73
2022/04/21 12:00:02;;;;;;;12.10;3.45;;;16.20;99.90;;;15.32;60.55;101261.19;5021250;28;20090;-74
2022/04/21 12:08:48;;;;;;;12.60;3.30;;;16.20;99.90;;;15.03;59.42;101269.97;5018596;28;20737;-73
2022/04/21 12:11:39;;;;;;;13.07;3.33;;;16.10;99.90;;;15.00;60.22;101271.00;5013658;28;20029;-73
2022/04/21 12:17:33;;;;;;;13.63;3.40;;;16.20;99.90;;;15.10;60.17;101266.03;5024711;28;20043;-73
2022/04/21 12:20:03;;;;;;;13.63;3.50;;;15.90;99.90;;;14.64;59.38;101268.59;5012132;28;20037;-74
2022/04/21 12:22:35;;;;;;;11.57;3.33;;;15.70;99.90;;;14.26;60.27;101263.56;5028969;28;20377;-74
2022/04/21 12:25:27;;;;;;;12.88;3.08;;;15.60;99.90;;;14.11;60.63;101266.06;5019428;28;20409;-74
2022/04/21 12:30:41;;;;;;;13.38;3.42;;;15.40;99.90;;;14.27;62.41;101273.19;5019677;28;20132;-73
2022/04/21 12:33:43;;;;;;;8.80;2.90;;;15.50;99.90;;;14.43;62.15;101271.44;5020465;28;20021;-74
2022/04/21 12:36:31;;;;;;;9.38;3.38;;;15.50;99.90;;;14.56;61.84;101264.56;4999458;28;20049;-72
2022/04/21 12:39:17;;;;;;;12.57;2.80;;;15.60;99.90;;;14.59;61.11;101260.91;5010396;28;20085;-74
2022/04/21 12:47:45;;;;;;;13.43;3.03;;;15.80;99.90;;;14.84;61.91;101268.34;5017342;28;20143;-73
2022/04/21 12:50:20;;;;;;;15.15;3.83;;;15.70;99.90;;;14.57;62.17;101271.56;5026602;28;20025;-74
2022/04/21 12:52:49;;;;;;;11.25;3.58;;;15.70;99.90;;;14.57;62.15;101266.28;5025810;28;20047;-73
2022/04/21 12:55:19;;;;;;;16.15;3.75;;;15.50;99.90;;;14.21;62.61;101273.53;5021202;28;20613;-73
2022/04/21 12:58:02;;;;;;;11.30;3.40;;;15.40;99.90;;;14.14;62.95;101273.84;5025057;28;20048;-74
2022/04/21 13:00:30;;;;;;;10.77;3.72;;;15.40;99.90;;;14.36;62.59;101276.22;5025816;28;20517;-73
2022/04/21 13:03:15;;;;;;;10.25;3.08;;;15.60;99.90;;;14.31;62.04;101288.84;5021299;28;20086;-75
2022/04/21 13:05:52;;;;;;;10.02;2.95;;;15.20;99.90;;;13.89;62.85;101284.03;5015329;28;20033;-74